Wetterstation Vordersexau
Wetterdaten: Woche 22.10.12 - 28.10.12 (KW43)
Datum Zeit Temp. A. Feuchte A. Luftdruck Regen Wind Richtung Taupunkt Windchill Windben
22.10.2012 00:00 9,6 C 82 % 1015,6 hPa 0,0 l/m 0,0 km/h O-NO 6,7 C 9,6 C 0,0 km/h
22.10.2012 01:00 11,1 C 79 % 1015,5 hPa 0,0 l/m 0,0 km/h S-SW 7,6 C 11,1 C 0,0 km/h
22.10.2012 02:00 11,3 C 78 % 1016,3 hPa 0,0 l/m 0,0 km/h S-SO 7,6 C 11,3 C 0,0 km/h
22.10.2012 03:00 10,8 C 78 % 1016,0 hPa 0,0 l/m 0,0 km/h S-SW 7,1 C 10,8 C 0,0 km/h
22.10.2012 04:00 11,2 C 75 % 1016,2 hPa 0,0 l/m 0,0 km/h S-SW 6,9 C 11,2 C 0,0 km/h
22.10.2012 05:00 10,7 C 75 % 1015,9 hPa 0,0 l/m 0,0 km/h S-SW 6,5 C 10,7 C 0,0 km/h
22.10.2012 06:00 10,9 C 75 % 1015,9 hPa 0,0 l/m 0,0 km/h W-SW 6,6 C 10,9 C 0,0 km/h
22.10.2012 07:00 10,9 C 72 % 1016,9 hPa 0,0 l/m 0,0 km/h NW 6,1 C 10,9 C 0,0 km/h
22.10.2012 08:00 10,8 C 70 % 1017,6 hPa 0,0 l/m 0,0 km/h N-NO 5,6 C 10,8 C 0,0 km/h
22.10.2012 09:00 11,1 C 69 % 1017,9 hPa 0,0 l/m 0,0 km/h W-SW 5,6 C 11,1 C 0,0 km/h
22.10.2012 10:00 11,9 C 67 % 1018,4 hPa 0,0 l/m 1,9 km/h S 6,0 C 11,9 C 1,1 km/h
22.10.2012 11:00 12,5 C 71 % 1019,1 hPa 0,0 l/m 0,0 km/h NO 7,4 C 12,5 C 0,0 km/h
22.10.2012 12:00 13,5 C 79 % 1018,8 hPa 0,0 l/m 0,0 km/h NO 9,9 C 13,5 C 0,0 km/h
22.10.2012 13:00 13,6 C 84 % 1018,6 hPa 0,0 l/m 0,0 km/h N-NW 10,9 C 13,6 C 0,0 km/h
22.10.2012 14:00 13,6 C 84 % 1018,4 hPa 0,0 l/m 0,0 km/h W-SW 10,9 C 13,6 C 0,0 km/h
22.10.2012 15:00 14,1 C 84 % 1018,5 hPa 0,0 l/m 0,0 km/h N-NW 11,4 C 14,1 C 0,0 km/h
22.10.2012 16:00 14,4 C 83 % 1018,6 hPa 0,0 l/m 0,0 km/h W-SW 11,5 C 14,4 C 0,0 km/h
22.10.2012 17:00 12,7 C 84 % 1018,3 hPa 0,0 l/m 0,0 km/h N 10,1 C 12,7 C 0,0 km/h
22.10.2012 18:00 12,4 C 83 % 1018,5 hPa 0,0 l/m 0,0 km/h W-NW 9,6 C 12,4 C 0,0 km/h
22.10.2012 19:00 11,8 C 78 % 1019,1 hPa 0,0 l/m 1,9 km/h N-NW 8,1 C 11,8 C 1,1 km/h
22.10.2012 20:00 11,4 C 75 % 1019,5 hPa 0,0 l/m 0,0 km/h NW 7,1 C 11,4 C 0,0 km/h
22.10.2012 21:00 11,1 C 72 % 1019,7 hPa 0,0 l/m 0,0 km/h W-NW 6,2 C 11,1 C 0,0 km/h
22.10.2012 22:00 10,9 C 70 % 1019,9 hPa 0,0 l/m 0,0 km/h NW 5,6 C 10,9 C 0,0 km/h
22.10.2012 23:00 10,4 C 69 % 1019,8 hPa 0,0 l/m 0,0 km/h W-NW 5,0 C 10,4 C 0,0 km/h
23.10.2012 00:00 10,3 C 67 % 1019,8 hPa 0,4 l/m 0,0 km/h W-NW 4,4 C 10,3 C 0,0 km/h
23.10.2012 01:00 10,3 C 66 % 1020,0 hPa 0,0 l/m 0,0 km/h W-NW 4,2 C 10,3 C 0,0 km/h
23.10.2012 02:00 10,3 C 65 % 1019,8 hPa 0,0 l/m 0,0 km/h N-NW 4,0 C 10,3 C 0,0 km/h
23.10.2012 03:00 10,2 C 65 % 1019,5 hPa 0,0 l/m 0,0 km/h S-SO 3,9 C 10,2 C 0,0 km/h
23.10.2012 04:00 9,9 C 66 % 1019,4 hPa 0,0 l/m 1,9 km/h S-SO 3,9 C 9,9 C 1,1 km/h
23.10.2012 05:00 9,7 C 68 % 1019,5 hPa 0,0 l/m 0,6 km/h NW 4,1 C 9,7 C 0,4 km/h
23.10.2012 06:00 9,0 C 69 % 1019,8 hPa 0,0 l/m 0,0 km/h NW 3,6 C 9,0 C 0,0 km/h
23.10.2012 07:00 8,8 C 68 % 1019,7 hPa 0,0 l/m 0,0 km/h NW 3,2 C 8,8 C 0,0 km/h
23.10.2012 08:00 8,9 C 67 % 1020,1 hPa 0,0 l/m 0,0 km/h NW 3,1 C 8,9 C 0,0 km/h
23.10.2012 09:00 9,3 C 67 % 1020,6 hPa 0,0 l/m 0,0 km/h NO 3,5 C 9,3 C 0,0 km/h
23.10.2012 10:00 9,8 C 67 % 1020,9 hPa 0,0 l/m 0,0 km/h NO 4,0 C 9,8 C 0,0 km/h
23.10.2012 11:00 10,4 C 77 % 1020,9 hPa 0,0 l/m 0,0 km/h NO 6,5 C 10,4 C 0,0 km/h
23.10.2012 12:00 10,8 C 85 % 1021,1 hPa 0,0 l/m 0,0 km/h S 8,4 C 10,8 C 0,0 km/h
23.10.2012 13:00 12,5 C 82 % 1020,6 hPa 0,0 l/m 6,5 km/h W-NW 9,5 C 12,5 C 3,6 km/h
23.10.2012 14:00 12,3 C 81 % 1020,2 hPa 0,0 l/m 1,9 km/h W-NW 9,1 C 12,3 C 1,1 km/h
23.10.2012 15:00 11,9 C 82 % 1020,2 hPa 0,0 l/m 11,0 km/h W-NW 8,9 C 9,2 C 6,1 km/h
23.10.2012 16:00 11,8 C 83 % 1019,8 hPa 0,0 l/m 1,3 km/h NW 9,0 C 11,8 C 0,7 km/h
23.10.2012 17:00 11,1 C 83 % 1020,0 hPa 0,0 l/m 0,0 km/h NW 8,3 C 11,1 C 0,0 km/h
23.10.2012 18:00 10,4 C 84 % 1019,8 hPa 0,0 l/m 0,0 km/h W-NW 7,8 C 10,4 C 0,0 km/h
23.10.2012 19:00 9,8 C 85 % 1020,1 hPa 0,0 l/m 0,0 km/h W-SW 7,4 C 9,8 C 0,0 km/h
23.10.2012 20:00 9,5 C 85 % 1020,0 hPa 0,0 l/m 0,0 km/h W-SW 7,1 C 9,5 C 0,0 km/h
23.10.2012 21:00 7,9 C 85 % 1020,2 hPa 0,0 l/m 0,0 km/h S-SO 5,5 C 7,9 C 0,0 km/h
23.10.2012 22:00 8,4 C 85 % 1020,5 hPa 0,0 l/m 0,0 km/h O-NO 6,0 C 8,4 C 0,0 km/h
23.10.2012 23:00 7,9 C 85 % 1020,2 hPa 0,0 l/m 0,0 km/h S-SO 5,5 C 7,9 C 0,0 km/h
24.10.2012 00:00 6,7 C 85 % 1019,8 hPa 0,0 l/m 5,2 km/h S-SO 4,4 C 6,7 C 2,9 km/h
24.10.2012 01:00 6,4 C 84 % 1019,4 hPa 0,0 l/m 0,0 km/h S-SO 3,9 C 6,4 C 0,0 km/h
24.10.2012 02:00 6,1 C 84 % 1019,1 hPa 0,0 l/m 0,0 km/h S-SO 3,6 C 6,1 C 0,0 km/h
24.10.2012 03:00 6,5 C 83 % 1018,8 hPa 0,0 l/m 2,6 km/h S-SO 3,8 C 6,5 C 1,4 km/h
24.10.2012 04:00 6,8 C 84 % 1018,7 hPa 0,0 l/m 0,0 km/h SO 4,3 C 6,8 C 0,0 km/h
24.10.2012 05:00 7,1 C 85 % 1018,3 hPa 0,0 l/m 0,0 km/h SO 4,8 C 7,1 C 0,0 km/h
24.10.2012 06:00 7,2 C 85 % 1018,2 hPa 0,0 l/m 0,0 km/h NO 4,9 C 7,2 C 0,0 km/h
24.10.2012 07:00 6,9 C 85 % 1018,0 hPa 0,0 l/m 0,0 km/h O 4,6 C 6,9 C 0,0 km/h
24.10.2012 08:00 6,9 C 84 % 1018,0 hPa 0,0 l/m 0,0 km/h O 4,4 C 6,9 C 0,0 km/h
24.10.2012 09:00 7,9 C 84 % 1018,4 hPa 0,0 l/m 0,0 km/h O-SO 5,4 C 7,9 C 0,0 km/h
24.10.2012 10:00 9,6 C 85 % 1018,4 hPa 0,0 l/m 0,0 km/h O-SO 7,2 C 9,6 C 0,0 km/h
24.10.2012 11:00 11,2 C 81 % 1018,3 hPa 0,0 l/m 0,0 km/h N-NW 8,1 C 11,2 C 0,0 km/h
24.10.2012 12:00 18,7 C 59 % 1017,8 hPa 0,0 l/m 0,0 km/h W 10,5 C 18,7 C 0,0 km/h
24.10.2012 13:00 15,7 C 64 % 1017,2 hPa 0,0 l/m 3,9 km/h W-NW 8,9 C 15,7 C 2,2 km/h
24.10.2012 14:00 15,0 C 65 % 1016,4 hPa 0,0 l/m 6,5 km/h W-NW 8,5 C 15,0 C 3,6 km/h
24.10.2012 15:00 16,6 C 62 % 1016,3 hPa 0,0 l/m 5,8 km/h NW 9,3 C 16,6 C 3,2 km/h
24.10.2012 16:00 17,4 C 58 % 1015,9 hPa 0,0 l/m 5,8 km/h W-NW 9,1 C 17,4 C 3,2 km/h
24.10.2012 17:00 15,9 C 61 % 1015,6 hPa 0,0 l/m 0,0 km/h W-NW 8,4 C 15,9 C 0,0 km/h
24.10.2012 18:00 9,9 C 72 % 1015,6 hPa 0,0 l/m 0,0 km/h W-NW 5,1 C 9,9 C 0,0 km/h
24.10.2012 19:00 8,1 C 83 % 1015,8 hPa 0,0 l/m 0,0 km/h W-NW 5,4 C 8,1 C 0,0 km/h
24.10.2012 20:00 8,4 C 84 % 1015,8 hPa 0,0 l/m 0,0 km/h W-NW 5,9 C 8,4 C 0,0 km/h
24.10.2012 21:00 7,3 C 85 % 1015,9 hPa 0,0 l/m 0,0 km/h O 4,9 C 7,3 C 0,0 km/h
24.10.2012 22:00 6,2 C 84 % 1015,9 hPa 0,0 l/m 0,0 km/h O 3,7 C 6,2 C 0,0 km/h
24.10.2012 23:00 5,2 C 84 % 1015,8 hPa 0,0 l/m 0,0 km/h O-SO 2,7 C 5,2 C 0,0 km/h
25.10.2012 00:00 5,0 C 83 % 1015,8 hPa 0,0 l/m 0,0 km/h O 2,4 C 5,0 C 0,0 km/h
25.10.2012 01:00 4,6 C 83 % 1015,7 hPa 0,0 l/m 0,0 km/h O-SO 2,0 C 4,6 C 0,0 km/h
25.10.2012 02:00 5,7 C 81 % 1015,5 hPa 0,0 l/m 0,0 km/h S-SO 2,7 C 5,7 C 0,0 km/h
25.10.2012 03:00 6,5 C 79 % 1015,2 hPa 0,0 l/m 0,0 km/h S-SO 3,1 C 6,5 C 0,0 km/h
25.10.2012 04:00 7,0 C 78 % 1014,8 hPa 0,0 l/m 0,0 km/h SO 3,4 C 7,0 C 0,0 km/h
25.10.2012 05:00 7,2 C 78 % 1014,3 hPa 0,0 l/m 0,0 km/h O 3,6 C 7,2 C 0,0 km/h
25.10.2012 06:00 7,2 C 80 % 1013,9 hPa 0,0 l/m 0,0 km/h O-SO 4,0 C 7,2 C 0,0 km/h
25.10.2012 07:00 7,5 C 80 % 1013,6 hPa 0,0 l/m 0,0 km/h S-SO 4,3 C 7,5 C 0,0 km/h
25.10.2012 08:00 7,4 C 82 % 1013,9 hPa 0,0 l/m 1,3 km/h O-NO 4,5 C 7,4 C 0,7 km/h
25.10.2012 09:00 7,9 C 83 % 1014,2 hPa 0,0 l/m 0,0 km/h S-SO 5,2 C 7,9 C 0,0 km/h
25.10.2012 10:00 8,6 C 85 % 1014,0 hPa 0,0 l/m 1,9 km/h S-SW 6,2 C 8,6 C 1,1 km/h
25.10.2012 11:00 9,8 C 83 % 1014,3 hPa 0,0 l/m 0,0 km/h S-SW 7,1 C 9,8 C 0,0 km/h
25.10.2012 12:00 10,1 C 82 % 1014,7 hPa 0,0 l/m 0,0 km/h W 7,2 C 10,1 C 0,0 km/h
25.10.2012 13:00 13,2 C 75 % 1013,5 hPa 0,0 l/m 1,9 km/h W-NW 8,9 C 13,2 C 1,1 km/h
25.10.2012 14:00 15,4 C 67 % 1012,4 hPa 0,0 l/m 0,0 km/h W 9,3 C 15,4 C 0,0 km/h
25.10.2012 15:00 17,6 C 61 % 1011,3 hPa 0,0 l/m 0,0 km/h W 10,0 C 17,6 C 0,0 km/h
25.10.2012 16:00 19,3 C 55 % 1010,9 hPa 0,0 l/m 0,0 km/h NW 10,0 C 19,3 C 0,0 km/h
25.10.2012 17:00 17,8 C 57 % 1010,7 hPa 0,0 l/m 0,0 km/h NW 9,2 C 17,8 C 0,0 km/h
25.10.2012 18:00 10,6 C 70 % 1010,1 hPa 0,0 l/m 0,0 km/h NW 5,4 C 10,6 C 0,0 km/h
25.10.2012 19:00 6,9 C 80 % 1010,4 hPa 0,0 l/m 0,0 km/h NW 3,7 C 6,9 C 0,0 km/h
25.10.2012 20:00 5,9 C 84 % 1010,3 hPa 0,0 l/m 0,0 km/h S-SW 3,4 C 5,9 C 0,0 km/h
25.10.2012 21:00 5,1 C 85 % 1010,4 hPa 0,0 l/m 0,0 km/h O-NO 2,8 C 5,1 C 0,0 km/h
25.10.2012 22:00 5,4 C 84 % 1010,0 hPa 0,0 l/m 0,0 km/h SO 2,9 C 5,4 C 0,0 km/h
25.10.2012 23:00 4,7 C 84 % 1010,2 hPa 0,0 l/m 0,0 km/h W 2,2 C 4,7 C 0,0 km/h
26.10.2012 02:00 6,4 C 79 % 1009,2 hPa 0,0 l/m 0,0 km/h O-NO 3,0 C 6,4 C 0,0 km/h
26.10.2012 03:00 6,7 C 78 % 1009,0 hPa 0,0 l/m 0,0 km/h SO 3,1 C 6,7 C 0,0 km/h
26.10.2012 04:00 6,9 C 78 % 1009,0 hPa 0,0 l/m 0,0 km/h O-NO 3,3 C 6,9 C 0,0 km/h
26.10.2012 05:00 7,0 C 77 % 1008,1 hPa 0,0 l/m 0,0 km/h NO 3,2 C 7,0 C 0,0 km/h
26.10.2012 06:00 7,0 C 77 % 1007,7 hPa 0,0 l/m 0,0 km/h NO 3,2 C 7,0 C 0,0 km/h
26.10.2012 07:00 7,0 C 75 % 1007,3 hPa 0,0 l/m 0,0 km/h N-NW 2,9 C 7,0 C 0,0 km/h
26.10.2012 08:00 7,0 C 75 % 1007,4 hPa 0,0 l/m 0,0 km/h N-NW 2,9 C 7,0 C 0,0 km/h
26.10.2012 09:00 7,4 C 73 % 1007,0 hPa 0,0 l/m 0,0 km/h W-NW 2,9 C 7,4 C 0,0 km/h
26.10.2012 10:00 8,9 C 70 % 1006,5 hPa 0,0 l/m 0,0 km/h W-NW 3,7 C 8,9 C 0,0 km/h
26.10.2012 11:00 9,7 C 80 % 1005,4 hPa 0,0 l/m 0,0 km/h W 6,4 C 9,7 C 0,0 km/h
26.10.2012 12:00 10,8 C 85 % 1004,8 hPa 0,0 l/m 1,3 km/h W-NW 8,4 C 10,8 C 0,7 km/h
26.10.2012 13:00 11,1 C 84 % 1003,8 hPa 0,0 l/m 0,0 km/h W-NW 8,5 C 11,1 C 0,0 km/h
26.10.2012 14:00 11,7 C 83 % 1002,3 hPa 0,0 l/m 1,3 km/h W 8,9 C 11,7 C 0,7 km/h
26.10.2012 15:00 11,4 C 83 % 1001,1 hPa 0,0 l/m 0,0 km/h W-SW 8,6 C 11,4 C 0,0 km/h
26.10.2012 16:00 10,9 C 83 % 1000,3 hPa 0,0 l/m 0,0 km/h W-SW 8,1 C 10,9 C 0,0 km/h
26.10.2012 17:00 10,3 C 84 % 999,1 hPa 0,0 l/m 0,0 km/h S-SW 7,7 C 10,3 C 0,0 km/h
26.10.2012 18:00 9,8 C 85 % 998,1 hPa 0,0 l/m 0,0 km/h S-SW 7,4 C 9,8 C 0,0 km/h
26.10.2012 19:00 9,3 C 85 % 997,7 hPa 0,0 l/m 0,0 km/h W-NW 6,9 C 9,3 C 0,0 km/h
26.10.2012 20:00 9,2 C 84 % 997,2 hPa 0,0 l/m 0,0 km/h W-NW 6,6 C 9,2 C 0,0 km/h
26.10.2012 21:00 8,8 C 83 % 996,7 hPa 0,0 l/m 0,0 km/h NW 6,1 C 8,8 C 0,0 km/h
26.10.2012 22:00 8,3 C 82 % 995,6 hPa 0,0 l/m 0,0 km/h W-NW 5,4 C 8,3 C 0,0 km/h
26.10.2012 23:00 7,8 C 80 % 994,2 hPa 0,7 l/m 0,0 km/h W-NW 4,6 C 7,8 C 0,0 km/h
27.10.2012 00:00 7,6 C 78 % 993,6 hPa 0,7 l/m 0,0 km/h W-NW 4,0 C 7,6 C 0,0 km/h
27.10.2012 01:00 7,1 C 76 % 993,2 hPa 0,7 l/m 0,0 km/h W-NW 3,2 C 7,1 C 0,0 km/h
27.10.2012 02:00 6,7 C 75 % 992,2 hPa 0,7 l/m 0,0 km/h NW 2,6 C 6,7 C 0,0 km/h
27.10.2012 03:00 6,2 C 74 % 991,5 hPa 0,7 l/m 1,9 km/h N-NW 1,9 C 6,2 C 1,1 km/h
27.10.2012 04:00 5,9 C 74 % 990,9 hPa 0,7 l/m 0,0 km/h NW 1,6 C 5,9 C 0,0 km/h
27.10.2012 05:00 5,6 C 73 % 990,6 hPa 0,4 l/m 0,0 km/h N-NW 1,2 C 5,6 C 0,0 km/h
27.10.2012 06:00 4,8 C 74 % 990,9 hPa 2,5 l/m 0,0 km/h N-NW 0,6 C 4,8 C 0,0 km/h
27.10.2012 07:00 3,9 C 76 % 991,3 hPa 2,5 l/m 3,2 km/h NO 0,1 C 3,9 C 1,8 km/h
27.10.2012 08:00 2,7 C 79 % 992,7 hPa 0,7 l/m 7,8 km/h W-NW -0,6 C 1,4 C 4,3 km/h
27.10.2012 09:00 1,2 C 80 % 994,1 hPa 1,1 l/m 0,0 km/h NW -1,9 C 1,2 C 0,0 km/h
27.10.2012 10:00 1,1 C 79 % 995,1 hPa 0,7 l/m 0,0 km/h NW -2,1 C 1,1 C 0,0 km/h
27.10.2012 11:00 1,5 C 77 % 996,4 hPa 0,7 l/m 0,0 km/h NO -2,1 C 1,5 C 0,0 km/h
27.10.2012 12:00 1,8 C 78 % 997,5 hPa 1,1 l/m 1,3 km/h NO -1,6 C 1,8 C 0,7 km/h
27.10.2012 13:00 1,8 C 80 % 998,0 hPa 0,4 l/m 0,0 km/h W-NW -1,3 C 1,8 C 0,0 km/h
27.10.2012 14:00 2,1 C 82 % 998,6 hPa 0,4 l/m 0,0 km/h NO -0,6 C 2,1 C 0,0 km/h
27.10.2012 15:00 2,1 C 85 % 999,6 hPa 0,0 l/m 0,0 km/h NO -0,2 C 2,1 C 0,0 km/h
27.10.2012 16:00 1,9 C 86 % 1000,3 hPa 0,0 l/m 9,7 km/h NO -0,2 C -1,1 C 5,4 km/h
27.10.2012 17:00 1,5 C 86 % 1001,5 hPa 0,4 l/m 0,0 km/h N -0,6 C 1,5 C 0,0 km/h
27.10.2012 18:00 1,2 C 85 % 1002,6 hPa 0,0 l/m 0,0 km/h NO -1,0 C 1,2 C 0,0 km/h
27.10.2012 19:00 0,9 C 85 % 1003,8 hPa 0,4 l/m 0,0 km/h N-NO -1,3 C 0,9 C 0,0 km/h
27.10.2012 20:00 1,0 C 83 % 1004,9 hPa 0,4 l/m 0,0 km/h NO -1,6 C 1,0 C 0,0 km/h
27.10.2012 21:00 0,8 C 83 % 1006,3 hPa 0,4 l/m 0,0 km/h NO -1,8 C 0,8 C 0,0 km/h
27.10.2012 22:00 0,9 C 82 % 1006,8 hPa 0,0 l/m 0,0 km/h NO -1,8 C 0,9 C 0,0 km/h
27.10.2012 23:00 0,5 C 86 % 1007,0 hPa 0,0 l/m 0,0 km/h N-NO -1,6 C 0,5 C 0,0 km/h
28.10.2012 00:00 0,6 C 87 % 1007,6 hPa 0,0 l/m 0,0 km/h N-NO -1,3 C 0,6 C 0,0 km/h
28.10.2012 01:00 0,6 C 87 % 1007,6 hPa 0,0 l/m 6,5 km/h O-NO -1,3 C 0,5 C 3,6 km/h
28.10.2012 02:00 0,5 C 87 % 1006,9 hPa 0,0 l/m 0,0 km/h NO -1,4 C 0,5 C 0,0 km/h
28.10.2012 03:00 0,3 C 86 % 1007,3 hPa 0,0 l/m 1,9 km/h NO -1,8 C 0,3 C 1,1 km/h
28.10.2012 04:00 0,4 C 85 % 1007,3 hPa 0,0 l/m 1,9 km/h NO -1,8 C 0,4 C 1,1 km/h
28.10.2012 05:00 0,5 C 85 % 1007,3 hPa 0,0 l/m 16,2 km/h NO -1,7 C -7,1 C 9,0 km/h
28.10.2012 06:00 0,9 C 86 % 1007,2 hPa 0,0 l/m 5,8 km/h NO -1,2 C 0,9 C 3,2 km/h
28.10.2012 07:00 0,9 C 86 % 1007,6 hPa 0,0 l/m 2,6 km/h N-NO -1,2 C 0,9 C 1,4 km/h
28.10.2012 08:00 1,3 C 86 % 1008,2 hPa 0,0 l/m 0,0 km/h NO -0,8 C 1,3 C 0,0 km/h
28.10.2012 09:00 2,5 C 86 % 1009,2 hPa 0,0 l/m 0,0 km/h NO 0,4 C 2,5 C 0,0 km/h
28.10.2012 10:00 3,3 C 82 % 1010,1 hPa 0,0 l/m 1,3 km/h NO 0,5 C 3,3 C 0,7 km/h
28.10.2012 11:00 4,1 C 78 % 1010,3 hPa 0,0 l/m 0,0 km/h N-NO 0,6 C 4,1 C 0,0 km/h
28.10.2012 12:00 3,9 C 79 % 1009,9 hPa 0,0 l/m 4,5 km/h N-NO 0,6 C 3,9 C 2,5 km/h
28.10.2012 13:00 3,6 C 80 % 1010,1 hPa 0,0 l/m 0,0 km/h N-NO 0,5 C 3,6 C 0,0 km/h
28.10.2012 14:00 4,7 C 79 % 1010,6 hPa 0,0 l/m 3,2 km/h NO 1,4 C 4,7 C 1,8 km/h
28.10.2012 15:00 3,8 C 79 % 1010,8 hPa 0,0 l/m 0,0 km/h N-NO 0,5 C 3,8 C 0,0 km/h
28.10.2012 16:00 3,2 C 81 % 1010,9 hPa 0,0 l/m 0,0 km/h NO 0,3 C 3,2 C 0,0 km/h
28.10.2012 17:00 2,6 C 83 % 1011,9 hPa 0,0 l/m 0,0 km/h SO 0,0 C 2,6 C 0,0 km/h
28.10.2012 18:00 1,5 C 85 % 1012,5 hPa 0,0 l/m 0,0 km/h NO -0,7 C 1,5 C 0,0 km/h
28.10.2012 19:00 1,4 C 85 % 1013,1 hPa 0,0 l/m 0,0 km/h N-NO -0,8 C 1,4 C 0,0 km/h
28.10.2012 20:00 0,9 C 86 % 1013,5 hPa 0,0 l/m 0,0 km/h N-NO -1,2 C 0,9 C 0,0 km/h
28.10.2012 21:00 1,2 C 86 % 1014,0 hPa 0,0 l/m 0,0 km/h N-NO -0,9 C 1,2 C 0,0 km/h
28.10.2012 22:00 0,9 C 86 % 1014,3 hPa 0,0 l/m 0,0 km/h O-SO -1,2 C 0,9 C 0,0 km/h
28.10.2012 23:00 -0,4 C 86 % 1014,4 hPa 0,0 l/m 0,0 km/h O-SO -2,4 C -0,4 C 0,0 km/h
Min-Datum _ 28.10.12 25.10.12 27.10.12 - 22.10.12 - 28.10.12 28.10.12 22.10.12
_ Min-Zeit 23:19 16:19 05:19 - 00:19 - 23:19 05:19 00:19
Minimum _ -0,4 C 55 % 990,6 hPa - 0,0 km/h - -2,4 C -7,1 C 0,0 km/h
Max-Datum _ 25.10.12 28.10.12 23.10.12 27.10.12 28.10.12 - 22.10.12 25.10.12 28.10.12
_ Max-Zeit 16:19 00:19 12:19 06:19 05:19 - 16:19 16:19 05:19
Maximum _ 19,3 C 87 % 1021,1 hPa 2,5 l/m 16,2 km/h
NO
- 11,5 C 19,3 C 9,0 km/h
NO
Durchschnitt _ 7,7 C 79 % 1011,4 hPa #16,4 l/m 0,8 km/h NO 4,2 C 7,6 C 0,4 km/h
www.sexauwetter.de